Time;durP1;ratioP1;P1;durP2;ratioP2;P2;SDS_P1;SDS_P2;PMS_P1;PMS_P2;Temp;Humidity;BMP_temperature;BMP_pressure;BME280_temperature;BME280_humidity;BME280_pressure;Samples;Min_cycle;Max_cycle;Signal;HPM_P1;HPM_P2
2022/09/16 00:00:36;;;;;;;2.55;1.40;;;20.20;58.40;;;;;;4934274;29;20027;-71
2022/09/16 00:03:02;;;;;;;5.85;1.50;;;20.20;58.30;;;;;;4935599;29;20032;-71
2022/09/16 00:05:28;;;;;;;5.22;1.58;;;20.20;58.10;;;;;;4934162;29;20392;-71
2022/09/16 00:07:54;;;;;;;3.58;1.45;;;20.20;58.20;;;;;;4935669;29;20098;-71
2022/09/16 00:10:21;;;;;;;3.83;1.30;;;20.20;58.10;;;;;;4918519;29;20401;-71
2022/09/16 00:12:48;;;;;;;5.25;1.77;;;20.20;58.10;;;;;;4935301;29;20159;-71
2022/09/16 00:15:15;;;;;;;4.43;1.60;;;20.20;58.10;;;;;;4934338;29;20075;-71
2022/09/16 00:17:40;;;;;;;2.95;1.30;;;20.20;58.10;;;;;;4934044;29;20504;-71
2022/09/16 00:20:08;;;;;;;4.53;1.38;;;20.20;58.00;;;;;;4935647;29;20028;-71
2022/09/16 00:22:34;;;;;;;2.83;1.30;;;20.20;58.30;;;;;;4934101;29;20038;-71
2022/09/16 00:25:00;;;;;;;2.47;1.30;;;20.20;58.10;;;;;;4935069;29;20023;-71
2022/09/16 00:27:26;;;;;;;3.65;1.52;;;20.20;58.20;;;;;;4934173;29;20038;-71
2022/09/16 00:29:52;;;;;;;5.70;1.80;;;20.10;57.80;;;;;;4935040;29;20059;-71
2022/09/16 00:32:18;;;;;;;4.82;1.73;;;20.20;58.00;;;;;;4935034;29;20066;-71
2022/09/16 00:34:44;;;;;;;4.38;1.55;;;20.20;57.80;;;;;;4933737;29;20467;-71
2022/09/16 00:37:10;;;;;;;3.13;1.48;;;20.20;57.70;;;;;;4934793;29;20032;-71
2022/09/16 00:39:36;;;;;;;6.03;1.65;;;20.20;57.80;;;;;;4934742;29;20049;-71
2022/09/16 00:42:03;;;;;;;4.15;1.60;;;20.20;57.60;;;;;;4934892;29;20493;-71
2022/09/16 00:44:58;;;;;;;3.40;1.38;;;20.20;57.80;;;;;;4934704;29;20028;-71
2022/09/16 00:47:34;;;;;;;3.17;1.40;;;20.20;57.70;;;;;;4934677;29;20036;-71
2022/09/16 00:50:11;;;;;;;3.33;1.38;;;20.20;57.50;;;;;;4934920;29;20480;-71
2022/09/16 00:52:39;;;;;;;2.38;1.20;;;20.20;57.70;;;;;;4934744;29;20063;-71
2022/09/16 00:55:08;;;;;;;2.65;1.30;;;20.20;57.60;;;;;;4934515;29;20032;-71
2022/09/16 00:57:35;;;;;;;3.53;1.40;;;20.20;57.70;;;;;;4934637;29;20031;-71
2022/09/16 01:00:04;;;;;;;3.30;1.30;;;20.20;57.50;;;;;;4934732;29;20043;-71
2022/09/16 01:02:30;;;;;;;4.13;1.10;;;20.20;57.60;;;;;;4933493;29;20023;-71
2022/09/16 01:05:04;;;;;;;2.88;1.30;;;20.20;57.70;;;;;;4933222;29;20036;-71
2022/09/16 01:07:43;;;;;;;2.67;1.23;;;20.20;57.30;;;;;;4934480;29;20036;-71
2022/09/16 01:10:11;;;;;;;4.63;1.30;;;20.20;57.40;;;;;;4934601;29;20535;-71
2022/09/16 01:12:38;;;;;;;3.17;1.17;;;20.20;57.40;;;;;;4934584;29;20110;-71
2022/09/16 01:15:05;;;;;;;3.70;1.20;;;20.20;57.50;;;;;;4934238;29;20035;-71
2022/09/16 01:17:43;;;;;;;4.25;1.25;;;20.20;57.50;;;;;;4933334;29;20424;-71
2022/09/16 01:20:15;;;;;;;3.08;1.38;;;20.20;57.60;;;;;;4934586;29;20499;-71
2022/09/16 01:22:44;;;;;;;4.07;1.38;;;20.20;57.70;;;;;;4934524;29;20034;-71
2022/09/16 01:25:40;;;;;;;3.88;1.30;;;20.20;57.70;;;;;;4933315;29;20067;-71
2022/09/16 01:28:43;;;;;;;5.57;1.50;;;20.10;57.70;;;;;;4934435;29;20027;-71
2022/09/16 01:31:42;;;;;;;5.25;1.27;;;20.10;57.80;;;;;;4934569;29;20111;-71
2022/09/16 01:34:46;;;;;;;2.83;1.27;;;20.10;57.80;;;;;;4914535;29;20035;-71
2022/09/16 01:37:46;;;;;;;4.22;1.38;;;20.10;57.90;;;;;;4932414;29;20138;-71
2022/09/16 01:40:38;;;;;;;3.75;1.42;;;20.10;57.80;;;;;;4934505;29;20042;-71
2022/09/16 01:43:24;;;;;;;2.63;1.38;;;20.10;57.70;;;;;;4934309;29;20034;-71
2022/09/16 01:46:04;;;;;;;2.78;1.33;;;20.10;57.80;;;;;;4934350;29;20036;-71
2022/09/16 01:48:51;;;;;;;3.40;1.20;;;20.10;57.80;;;;;;4934344;29;20496;-71
2022/09/16 01:51:42;;;;;;;2.30;1.20;;;20.10;57.80;;;;;;4919731;29;20043;-71
2022/09/16 01:54:27;;;;;;;2.40;1.30;;;20.10;57.70;;;;;;4936489;29;20118;-71
2022/09/16 01:57:10;;;;;;;5.35;1.83;;;20.10;58.40;;;;;;4937776;29;20043;-71
2022/09/16 01:59:47;;;;;;;3.45;1.40;;;20.10;57.90;;;;;;4937895;29;20075;-71
2022/09/16 02:02:26;;;;;;;3.30;1.23;;;20.10;57.90;;;;;;4937801;29;20110;-71
2022/09/16 02:04:57;;;;;;;5.80;1.40;;;20.10;58.00;;;;;;4936261;29;20218;-70
2022/09/16 02:07:32;;;;;;;4.63;1.55;;;20.10;57.90;;;;;;4937596;29;20043;-70
2022/09/16 02:10:05;;;;;;;5.68;1.45;;;20.10;57.80;;;;;;4936518;29;20106;-70
2022/09/16 02:12:37;;;;;;;2.60;1.20;;;20.10;58.00;;;;;;4937905;29;20039;-71
2022/09/16 02:15:08;;;;;;;2.53;1.30;;;20.10;57.90;;;;;;4936134;29;20038;-71
2022/09/16 02:17:40;;;;;;;4.10;1.30;;;20.10;58.00;;;;;;4936172;29;20032;-71
2022/09/16 02:20:13;;;;;;;3.55;1.50;;;20.10;58.00;;;;;;4937507;29;20476;-71
2022/09/16 02:22:43;;;;;;;4.82;1.58;;;20.10;58.00;;;;;;4937428;29;20480;-71
2022/09/16 02:25:11;;;;;;;3.10;1.35;;;20.10;57.90;;;;;;4937140;29;20114;-71
2022/09/16 02:27:39;;;;;;;3.65;1.30;;;20.10;58.00;;;;;;4935998;29;20032;-71
2022/09/16 02:30:09;;;;;;;4.15;1.65;;;20.10;57.90;;;;;;4936124;29;20439;-71
2022/09/16 02:32:40;;;;;;;2.50;1.10;;;20.10;58.10;;;;;;4937315;29;20041;-71
2022/09/16 02:35:10;;;;;;;2.92;1.13;;;20.10;58.00;;;;;;4936918;29;20043;-71
2022/09/16 02:37:46;;;;;;;3.33;1.38;;;20.00;58.00;;;;;;4937025;29;20040;-70
2022/09/16 02:40:17;;;;;;;4.15;1.55;;;20.10;58.10;;;;;;4937245;29;20028;-71
2022/09/16 02:42:43;;;;;;;4.07;1.42;;;20.00;58.00;;;;;;4920497;29;20454;-71
2022/09/16 02:45:10;;;;;;;2.80;1.20;;;20.00;58.00;;;;;;4936763;29;20028;-71
2022/09/16 02:47:39;;;;;;;4.63;1.50;;;20.00;58.00;;;;;;4935664;29;20040;-71
2022/09/16 02:50:27;;;;;;;2.92;1.35;;;20.10;58.00;;;;;;4936918;29;20351;-71
2022/09/16 02:53:03;;;;;;;4.18;1.20;;;20.00;58.10;;;;;;4935784;29;20034;-71
2022/09/16 02:56:04;;;;;;;4.22;1.50;;;20.00;58.00;;;;;;4936818;29;20036;-71
2022/09/16 02:58:30;;;;;;;4.03;1.42;;;20.00;58.10;;;;;;4905998;29;20043;-71
2022/09/16 03:00:57;;;;;;;5.15;1.40;;;20.00;58.10;;;;;;4936573;29;20031;-71
2022/09/16 03:03:23;;;;;;;3.35;1.40;;;20.00;58.00;;;;;;4934966;29;20111;-71
2022/09/16 03:06:07;;;;;;;3.80;1.40;;;20.00;58.10;;;;;;4935428;29;20460;-71
2022/09/16 03:08:35;;;;;;;3.85;1.42;;;20.00;58.10;;;;;;4937110;29;20039;-71
2022/09/16 03:11:12;;;;;;;3.63;1.25;;;20.00;58.10;;;;;;4919480;29;20427;-71
2022/09/16 03:14:06;;;;;;;4.07;1.48;;;20.00;58.10;;;;;;4936259;29;20032;-70
2022/09/16 03:16:39;;;;;;;3.03;1.33;;;20.00;58.10;;;;;;4935157;29;20071;-71
2022/09/16 03:19:44;;;;;;;3.67;1.50;;;20.00;58.30;;;;;;4919378;29;20396;-71
2022/09/16 03:22:33;;;;;;;3.72;1.30;;;20.00;58.00;;;;;;4926096;29;20066;-71
2022/09/16 03:25:26;;;;;;;4.95;1.30;;;20.00;58.10;;;;;;4936081;29;20231;-71
2022/09/16 03:28:08;;;;;;;4.88;1.23;;;20.00;58.00;;;;;;4936130;29;20039;-71
2022/09/16 03:30:40;;;;;;;3.72;1.52;;;20.10;57.90;;;;;;4935046;29;20082;-71
2022/09/16 03:33:14;;;;;;;4.90;1.60;;;20.10;58.00;;;;;;4935847;29;20036;-71
2022/09/16 03:35:47;;;;;;;4.95;1.30;;;20.10;57.90;;;;;;4935060;29;20036;-71
2022/09/16 03:38:13;;;;;;;4.32;1.60;;;20.10;58.00;;;;;;4934853;29;20079;-70
2022/09/16 03:40:41;;;;;;;5.15;1.50;;;20.10;58.00;;;;;;4936340;29;20392;-71
2022/09/16 03:43:15;;;;;;;5.57;1.38;;;20.10;57.90;;;;;;4935725;29;20028;-71
2022/09/16 03:45:41;;;;;;;4.03;1.70;;;20.10;57.90;;;;;;4935767;29;20027;-71
2022/09/16 03:48:09;;;;;;;5.35;1.40;;;20.10;58.00;;;;;;4935809;29;20051;-71
2022/09/16 03:50:35;;;;;;;5.95;1.70;;;20.00;58.00;;;;;;4935871;29;20027;-70
2022/09/16 03:53:02;;;;;;;3.78;1.50;;;20.10;58.00;;;;;;4934490;29;20396;-71
2022/09/16 03:55:28;;;;;;;3.80;1.30;;;20.10;58.00;;;;;;4935530;29;20028;-71
2022/09/16 03:57:54;;;;;;;4.43;1.40;;;20.10;57.90;;;;;;4935471;29;20488;-70
2022/09/16 04:00:21;;;;;;;5.15;1.48;;;20.10;58.00;;;;;;4935772;29;20031;-71
2022/09/16 04:02:46;;;;;;;4.05;1.63;;;20.10;57.80;;;;;;4935581;29;20041;-71
2022/09/16 04:05:12;;;;;;;5.57;1.42;;;20.10;58.00;;;;;;4935341;29;20028;-71
2022/09/16 04:07:38;;;;;;;3.33;1.55;;;20.00;58.00;;;;;;4934407;29;20040;-71
2022/09/16 04:10:05;;;;;;;7.50;1.67;;;20.00;58.00;;;;;;4935729;29;20028;-70
2022/09/16 04:12:31;;;;;;;4.22;1.50;;;20.00;58.00;;;;;;4934062;29;20028;-71
2022/09/16 04:14:57;;;;;;;6.07;2.03;;;20.00;58.10;;;;;;4933600;29;20032;-70
2022/09/16 04:17:23;;;;;;;3.95;1.65;;;20.00;58.20;;;;;;4933921;29;20048;-70
2022/09/16 04:19:50;;;;;;;5.93;2.30;;;20.00;58.00;;;;;;4935349;29;20035;-71
2022/09/16 04:22:15;;;;;;;5.88;1.65;;;20.00;58.10;;;;;;4935363;29;20119;-70
2022/09/16 04:24:41;;;;;;;4.63;1.77;;;20.00;58.10;;;;;;4934949;29;20118;-71
2022/09/16 04:27:07;;;;;;;4.75;1.75;;;20.00;58.10;;;;;;4934130;29;20031;-70
2022/09/16 04:29:33;;;;;;;4.18;1.70;;;20.00;58.10;;;;;;4935314;29;20028;-71
2022/09/16 04:31:58;;;;;;;6.85;2.00;;;20.00;58.10;;;;;;4935049;29;20035;-70
2022/09/16 04:34:24;;;;;;;6.45;2.05;;;20.00;58.20;;;;;;4933581;29;20038;-71
2022/09/16 04:36:50;;;;;;;5.20;1.90;;;20.00;58.10;;;;;;4935054;29;20035;-71
2022/09/16 04:39:16;;;;;;;4.80;1.98;;;20.00;58.20;;;;;;4935014;29;20087;-70
2022/09/16 04:41:42;;;;;;;4.78;1.90;;;19.90;58.10;;;;;;4935138;29;20031;-70
2022/09/16 04:44:09;;;;;;;5.55;2.45;;;20.00;58.20;;;;;;4933357;29;20444;-71
2022/09/16 04:46:35;;;;;;;6.18;2.40;;;19.90;58.10;;;;;;4934766;29;20488;-70
2022/09/16 04:49:01;;;;;;;7.75;2.38;;;19.90;58.10;;;;;;4934874;29;20063;-71
2022/09/16 04:51:28;;;;;;;4.05;2.08;;;19.90;58.10;;;;;;4917881;29;20042;-71
2022/09/16 04:53:57;;;;;;;6.65;2.35;;;19.90;58.20;;;;;;4934454;29;20106;-71
2022/09/16 04:56:26;;;;;;;3.53;1.87;;;19.90;58.20;;;;;;4934771;29;20032;-71
2022/09/16 04:58:54;;;;;;;6.93;2.40;;;19.90;58.20;;;;;;4933496;29;20295;-70
2022/09/16 05:01:22;;;;;;;5.88;2.17;;;19.90;58.20;;;;;;4934997;29;20436;-71
2022/09/16 05:03:51;;;;;;;4.97;2.08;;;20.00;58.10;;;;;;4934263;29;20024;-71
2022/09/16 05:06:22;;;;;;;4.28;2.08;;;19.90;58.10;;;;;;4933663;29;20051;-71
2022/09/16 05:08:49;;;;;;;4.63;1.98;;;19.90;58.20;;;;;;4933727;29;20035;-70
2022/09/16 05:11:20;;;;;;;4.40;2.20;;;19.90;58.10;;;;;;4917433;29;20054;-71
2022/09/16 05:13:47;;;;;;;6.30;2.22;;;19.90;58.10;;;;;;4932575;29;20036;-70
2022/09/16 05:16:15;;;;;;;6.97;2.50;;;19.90;58.20;;;;;;4934444;29;20035;-71
2022/09/16 05:18:44;;;;;;;4.25;2.10;;;19.90;58.10;;;;;;4934364;29;20036;-71
2022/09/16 05:21:13;;;;;;;9.02;2.72;;;19.90;58.10;;;;;;4934543;29;20473;-70
2022/09/16 05:23:42;;;;;;;4.78;2.30;;;19.90;58.20;;;;;;4934029;29;20519;-70
2022/09/16 05:26:11;;;;;;;6.30;2.38;;;19.90;58.20;;;;;;4936867;28;20039;-70
2022/09/16 05:28:37;;;;;;;4.80;2.35;;;19.90;58.20;;;;;;4938286;29;20115;-70
2022/09/16 05:31:16;;;;;;;8.95;2.50;;;19.90;58.20;;;;;;4938273;29;20027;-70
2022/09/16 05:33:43;;;;;;;5.32;2.40;;;19.90;58.10;;;;;;4937916;29;20043;-70
2022/09/16 05:36:12;;;;;;;4.82;2.50;;;19.90;58.10;;;;;;4937101;29;20503;-70
2022/09/16 05:38:38;;;;;;;6.38;2.40;;;19.90;58.10;;;;;;4937680;29;20543;-70
2022/09/16 05:41:05;;;;;;;4.68;2.28;;;19.90;58.20;;;;;;4938234;29;20032;-70
2022/09/16 05:43:32;;;;;;;5.82;2.30;;;19.90;58.10;;;;;;4937896;29;20657;-70
2022/09/16 05:45:58;;;;;;;7.38;2.90;;;19.90;58.20;;;;;;4937918;29;20086;-70
2022/09/16 05:48:25;;;;;;;6.70;2.75;;;19.90;58.10;;;;;;4938163;29;20059;-70
2022/09/16 05:50:56;;;;;;;4.18;2.15;;;19.90;58.10;;;;;;4937778;29;20039;-70
2022/09/16 05:53:24;;;;;;;6.47;2.33;;;19.90;58.10;;;;;;4937580;29;20036;-71
2022/09/16 05:55:57;;;;;;;8.27;2.58;;;19.90;58.10;;;;;;4937766;29;20035;-70
2022/09/16 05:58:24;;;;;;;8.07;3.08;;;19.90;58.10;;;;;;4937637;29;20042;-71
2022/09/16 06:01:01;;;;;;;6.30;2.50;;;19.90;58.00;;;;;;4937735;29;20079;-71
2022/09/16 06:03:28;;;;;;;6.53;2.67;;;19.90;58.10;;;;;;4937380;29;20036;-71
2022/09/16 06:06:04;;;;;;;7.60;2.50;;;19.90;58.10;;;;;;4936413;29;20028;-71
2022/09/16 06:08:32;;;;;;;5.38;2.45;;;19.90;58.10;;;;;;4937768;29;20031;-71
2022/09/16 06:11:03;;;;;;;6.95;2.55;;;19.90;58.10;;;;;;4937738;29;20039;-70
2022/09/16 06:13:29;;;;;;;5.55;2.42;;;19.90;58.10;;;;;;4937142;29;20027;-70
2022/09/16 06:15:56;;;;;;;6.72;2.50;;;19.90;58.20;;;;;;4937337;29;20131;-70
2022/09/16 06:18:24;;;;;;;7.57;2.30;;;19.90;58.10;;;;;;4937563;29;20031;-70
2022/09/16 06:20:50;;;;;;;4.95;2.20;;;19.90;58.00;;;;;;4937371;29;20032;-70
2022/09/16 06:23:17;;;;;;;5.53;2.30;;;19.90;58.00;;;;;;4936961;29;20110;-70
2022/09/16 06:25:43;;;;;;;4.25;2.15;;;19.90;57.80;;;;;;4937087;29;20054;-70
2022/09/16 06:28:10;;;;;;;4.80;2.20;;;19.90;58.00;;;;;;4937296;29;20027;-71
2022/09/16 06:30:37;;;;;;;5.93;2.30;;;19.90;57.90;;;;;;4937262;29;20043;-70
2022/09/16 06:33:03;;;;;;;5.88;2.10;;;20.00;57.90;;;;;;4937122;29;20396;-71
2022/09/16 06:35:29;;;;;;;6.10;2.58;;;20.00;57.90;;;;;;4936715;29;20118;-71
2022/09/16 06:37:55;;;;;;;9.93;2.90;;;20.00;57.80;;;;;;4936744;29;20027;-71
2022/09/16 06:40:20;;;;;;;5.80;2.38;;;20.00;57.80;;;;;;4937010;29;20031;-70
2022/09/16 06:42:47;;;;;;;8.98;2.63;;;20.00;57.80;;;;;;4937026;29;20511;-70
2022/09/16 06:45:12;;;;;;;7.50;2.17;;;20.00;57.70;;;;;;4936821;29;20035;-70
2022/09/16 06:47:38;;;;;;;6.50;2.38;;;20.00;57.80;;;;;;4936940;29;20034;-70
2022/09/16 06:50:05;;;;;;;4.90;2.17;;;20.00;57.70;;;;;;4935542;29;20032;-71
2022/09/16 06:52:31;;;;;;;12.43;2.90;;;20.00;57.80;;;;;;4935718;29;20069;-70
2022/09/16 06:54:57;;;;;;;5.13;2.13;;;20.00;57.70;;;;;;4935244;29;20039;-70
2022/09/16 06:57:23;;;;;;;4.72;2.42;;;20.00;57.70;;;;;;4936532;29;20028;-70
2022/09/16 06:59:49;;;;;;;8.48;3.08;;;20.00;57.70;;;;;;4936586;29;20066;-70
2022/09/16 07:02:16;;;;;;;7.18;2.55;;;20.00;57.80;;;;;;4936700;29;20036;-71
2022/09/16 07:04:42;;;;;;;6.60;2.33;;;20.00;57.80;;;;;;4935110;29;20405;-70
2022/09/16 07:07:08;;;;;;;6.75;2.17;;;19.90;57.70;;;;;;4936719;29;20059;-70
2022/09/16 07:09:34;;;;;;;7.50;2.40;;;19.90;57.90;;;;;;4919631;29;20042;-70
2022/09/16 07:12:00;;;;;;;6.72;2.05;;;19.90;57.80;;;;;;4935406;29;20031;-70
2022/09/16 07:14:27;;;;;;;6.90;2.35;;;19.90;57.80;;;;;;4934846;29;20035;-70
2022/09/16 07:16:53;;;;;;;6.57;2.28;;;19.90;57.80;;;;;;4936344;29;20063;-70
2022/09/16 07:19:18;;;;;;;5.10;2.20;;;19.90;57.80;;;;;;4919321;29;20036;-70
2022/09/16 07:21:45;;;;;;;6.25;2.40;;;19.90;57.80;;;;;;4936358;29;20103;-70
2022/09/16 07:24:12;;;;;;;6.68;2.40;;;19.90;58.00;;;;;;4935057;29;20060;-70
2022/09/16 07:26:39;;;;;;;4.28;1.98;;;19.90;57.80;;;;;;4935171;29;20032;-70
2022/09/16 07:29:12;;;;;;;7.35;2.55;;;19.90;58.00;;;;;;4935759;29;20066;-70
2022/09/16 07:31:38;;;;;;;5.47;2.22;;;19.90;57.80;;;;;;4936211;29;20059;-70
2022/09/16 07:34:06;;;;;;;6.50;2.17;;;19.90;57.70;;;;;;4936082;29;20417;-70
2022/09/16 07:36:41;;;;;;;6.25;1.90;;;19.90;57.80;;;;;;4935943;29;20032;-70
2022/09/16 07:39:08;;;;;;;6.22;2.38;;;19.90;57.70;;;;;;4935839;29;20029;-70
2022/09/16 07:41:37;;;;;;;4.82;2.10;;;19.90;57.70;;;;;;4935931;29;20091;-70
2022/09/16 07:44:04;;;;;;;6.97;2.20;;;19.90;57.60;;;;;;4934438;29;20150;-70
2022/09/16 07:46:33;;;;;;;4.50;1.85;;;19.90;57.50;;;;;;4935594;29;20118;-70
2022/09/16 07:49:01;;;;;;;4.88;2.10;;;19.90;57.60;;;;;;4935117;29;20039;-70
2022/09/16 07:51:28;;;;;;;6.28;1.90;;;19.90;57.40;;;;;;4935645;29;20064;-70
2022/09/16 07:53:58;;;;;;;5.40;2.13;;;19.90;57.30;;;;;;4936006;29;20036;-70
2022/09/16 07:56:25;;;;;;;4.47;1.80;;;19.90;57.50;;;;;;4935444;29;20032;-71
2022/09/16 07:58:53;;;;;;;7.90;2.30;;;19.90;57.60;;;;;;4935855;29;20036;-70
2022/09/16 08:01:18;;;;;;;5.65;2.42;;;19.90;57.60;;;;;;4934230;29;20101;-70
2022/09/16 08:03:46;;;;;;;6.10;2.40;;;19.90;57.70;;;;;;4934119;29;20058;-70
2022/09/16 08:06:17;;;;;;;5.85;1.85;;;19.90;57.70;;;;;;4935298;29;20113;-70
2022/09/16 08:08:44;;;;;;;5.85;2.20;;;19.90;57.80;;;;;;4935608;29;20428;-70
2022/09/16 08:11:11;;;;;;;4.55;1.85;;;19.90;57.80;;;;;;4935263;29;20036;-70
2022/09/16 08:13:38;;;;;;;4.25;1.83;;;19.90;57.80;;;;;;4935298;29;20694;-70
2022/09/16 08:16:07;;;;;;;4.18;1.98;;;19.90;57.80;;;;;;4935259;29;20395;-70
2022/09/16 08:18:33;;;;;;;6.10;2.33;;;19.90;57.70;;;;;;4935294;29;20396;-70
2022/09/16 08:21:09;;;;;;;5.93;1.98;;;19.90;57.70;;;;;;4935174;29;20027;-70
2022/09/16 08:23:36;;;;;;;6.65;2.10;;;19.90;57.80;;;;;;4934964;29;20032;-70
2022/09/16 08:26:03;;;;;;;4.93;1.77;;;19.90;57.70;;;;;;4934971;29;20034;-70
2022/09/16 08:28:29;;;;;;;4.78;2.05;;;19.90;57.80;;;;;;4935230;29;20047;-70
2022/09/16 08:30:59;;;;;;;5.22;1.98;;;19.90;57.70;;;;;;4935044;29;20032;-70
2022/09/16 08:33:24;;;;;;;4.80;2.00;;;19.90;57.70;;;;;;4933603;29;20563;-70
2022/09/16 08:36:18;;;;;;;6.43;1.70;;;19.90;57.60;;;;;;4934912;29;20115;-70
2022/09/16 08:38:45;;;;;;;5.50;2.00;;;19.90;57.70;;;;;;4933115;29;20047;-70
2022/09/16 08:41:40;;;;;;;5.55;2.15;;;19.90;57.70;;;;;;4934931;29;20075;-70
2022/09/16 08:44:17;;;;;;;6.95;1.90;;;19.90;57.60;;;;;;4933582;29;20032;-70
2022/09/16 08:46:51;;;;;;;7.97;1.80;;;19.90;57.70;;;;;;4933508;29;20514;-70
2022/09/16 08:49:34;;;;;;;6.43;1.90;;;19.90;57.60;;;;;;4933710;29;20110;-71
2022/09/16 08:52:07;;;;;;;6.60;1.90;;;19.90;58.30;;;;;;4934661;29;20568;-70
2022/09/16 08:54:48;;;;;;;3.63;1.65;;;19.90;57.60;;;;;;4934532;29;20031;-70
2022/09/16 08:57:18;;;;;;;3.38;1.60;;;19.90;57.60;;;;;;4934840;29;20404;-70
2022/09/16 08:59:46;;;;;;;;;;;19.90;57.50;;;;;;4934863;29;20428;-70
2022/09/16 09:02:20;;;;;;;6.20;1.95;;;19.90;57.40;;;;;;4917754;29;19950;-70
2022/09/16 09:04:46;;;;;;;6.00;2.00;;;20.00;57.80;;;;;;4933290;29;20377;-70
2022/09/16 09:07:21;;;;;;;4.40;1.70;;;20.00;57.30;;;;;;4934430;29;20111;-70
2022/09/16 09:09:50;;;;;;;8.05;1.90;;;20.00;57.20;;;;;;4917626;29;20035;-70
2022/09/16 09:12:28;;;;;;;6.43;2.13;;;20.00;57.40;;;;;;4934531;29;20069;-70
2022/09/16 09:15:02;;;;;;;8.23;1.90;;;20.00;57.30;;;;;;4934258;29;20056;-70
2022/09/16 09:17:44;;;;;;;5.95;2.08;;;20.00;57.30;;;;;;4934486;29;20484;-70
2022/09/16 09:20:40;;;;;;;5.82;2.08;;;20.00;57.40;;;;;;4934571;29;20051;-70
2022/09/16 09:23:15;;;;;;;2.97;1.65;;;20.00;57.20;;;;;;4934188;29;20031;-70
2022/09/16 09:26:14;;;;;;;6.07;2.20;;;20.00;57.20;;;;;;4934265;29;20020;-70
2022/09/16 09:28:59;;;;;;;6.18;2.17;;;20.00;57.30;;;;;;4933301;29;20043;-70
2022/09/16 09:31:46;;;;;;;6.22;2.08;;;20.00;57.10;;;;;;4934239;29;20058;-70
2022/09/16 09:34:36;;;;;;;5.55;1.98;;;20.00;56.80;;;;;;4934147;29;20127;-70
2022/09/16 09:37:29;;;;;;;6.22;2.10;;;20.00;56.50;;;;;;4934221;29;20032;-70
2022/09/16 09:40:33;;;;;;;5.53;1.88;;;20.00;56.30;;;;;;4934267;29;20036;-70
2022/09/16 09:43:15;;;;;;;4.97;1.70;;;20.10;56.70;;;;;;4932842;29;20400;-70
2022/09/16 09:45:59;;;;;;;9.52;2.25;;;20.00;56.90;;;;;;4934342;29;20032;-70
2022/09/16 09:48:34;;;;;;;7.32;2.03;;;20.10;56.40;;;;;;4934397;29;20050;-71
2022/09/16 09:51:10;;;;;;;5.53;1.88;;;20.10;56.20;;;;;;4933362;29;20564;-70
2022/09/16 09:53:45;;;;;;;9.95;2.03;;;20.10;56.20;;;;;;4933906;29;20032;-70
2022/09/16 09:56:24;;;;;;;8.35;2.17;;;20.10;56.20;;;;;;4934100;29;20032;-71
2022/09/16 09:58:52;;;;;;;5.47;2.20;;;20.00;56.30;;;;;;4934141;29;20042;-71
2022/09/16 10:01:18;;;;;;;6.00;2.03;;;20.00;56.30;;;;;;4934102;29;20063;-71
2022/09/16 10:03:46;;;;;;;4.47;1.83;;;20.00;56.30;;;;;;4934104;29;20402;-70
2022/09/16 10:06:12;;;;;;;8.65;2.00;;;20.00;56.20;;;;;;4934020;29;20056;-71
2022/09/16 10:08:46;;;;;;;9.55;1.75;;;20.00;56.20;;;;;;4934119;29;20515;-70
2022/09/16 10:11:25;;;;;;;6.45;1.88;;;20.00;56.20;;;;;;4934719;29;20407;-70
2022/09/16 10:13:56;;;;;;;5.97;2.15;;;19.90;56.40;;;;;;4937315;29;20118;-71
2022/09/16 10:16:31;;;;;;;4.45;1.80;;;19.90;55.60;;;;;;4937466;29;20564;-71
2022/09/16 10:19:06;;;;;;;7.72;2.17;;;20.00;55.80;;;;;;4937507;29;20031;-70
2022/09/16 10:21:44;;;;;;;6.00;1.70;;;19.90;55.50;;;;;;4937328;29;20079;-70
2022/09/16 10:24:32;;;;;;;13.02;2.15;;;19.90;54.70;;;;;;4937132;29;20111;-70
2022/09/16 10:27:00;;;;;;;6.63;1.73;;;19.90;55.40;;;;;;4936063;29;20032;-71
2022/09/16 10:29:26;;;;;;;3.83;1.70;;;19.90;54.80;;;;;;4920305;29;20051;-70
2022/09/16 10:31:52;;;;;;;6.68;1.80;;;19.90;55.20;;;;;;4936190;29;20065;-70
2022/09/16 10:34:36;;;;;;;5.10;2.15;;;19.90;54.80;;;;;;4937034;29;20392;-70
2022/09/16 10:37:11;;;;;;;6.18;2.00;;;19.90;55.00;;;;;;4937362;29;20031;-70
2022/09/16 10:39:39;;;;;;;7.35;2.05;;;19.90;54.60;;;;;;4937083;29;20036;-70
2022/09/16 10:42:26;;;;;;;6.10;1.70;;;19.90;54.70;;;;;;4937011;29;20103;-70
2022/09/16 10:45:28;;;;;;;5.63;1.88;;;19.90;54.80;;;;;;4936824;29;20056;-70
2022/09/16 10:48:05;;;;;;;4.28;1.65;;;20.00;54.60;;;;;;4862420;29;20068;-70
2022/09/16 10:50:31;;;;;;;7.80;1.88;;;20.00;54.50;;;;;;4925883;29;20047;-70
2022/09/16 10:52:57;;;;;;;8.25;2.20;;;20.00;54.40;;;;;;4936702;29;20039;-70
2022/09/16 10:55:28;;;;;;;7.05;1.92;;;20.00;54.30;;;;;;4936195;29;20028;-70
2022/09/16 10:58:09;;;;;;;5.82;1.90;;;20.00;54.30;;;;;;4935435;29;20043;-70
2022/09/16 11:00:47;;;;;;;4.97;1.73;;;20.00;54.50;;;;;;4936962;29;20035;-70
2022/09/16 11:04:18;;;;;;;6.55;1.70;;;20.00;54.70;;;;;;4936350;29;20036;-70
2022/09/16 11:07:27;;;;;;;6.95;2.00;;;20.00;54.40;;;;;;4862443;29;20088;-70
2022/09/16 11:10:22;;;;;;;6.80;1.90;;;20.00;54.30;;;;;;4877971;29;20041;-70
2022/09/16 11:13:03;;;;;;;5.50;1.85;;;20.00;54.30;;;;;;4934104;29;20040;-70
2022/09/16 11:15:53;;;;;;;6.85;2.00;;;20.00;54.80;;;;;;4936358;29;20031;-70
2022/09/16 11:18:28;;;;;;;6.63;1.98;;;20.00;54.80;;;;;;4936301;29;20055;-70
2022/09/16 11:21:14;;;;;;;5.75;1.65;;;19.90;54.20;;;;;;4935616;29;20032;-70
2022/09/16 11:24:04;;;;;;;6.20;1.90;;;19.90;54.60;;;;;;4936208;29;20401;-70
2022/09/16 11:26:48;;;;;;;6.43;1.90;;;19.90;54.50;;;;;;4936279;29;20036;-70
2022/09/16 11:29:31;;;;;;;5.97;1.70;;;19.90;54.30;;;;;;4936169;29;20028;-70
2022/09/16 11:32:25;;;;;;;4.53;1.70;;;19.90;54.10;;;;;;4936304;29;20389;-70
2022/09/16 11:34:58;;;;;;;7.70;2.13;;;19.90;54.10;;;;;;4935833;29;20059;-70
2022/09/16 11:37:31;;;;;;;7.88;1.77;;;19.90;54.20;;;;;;4935909;29;20039;-70
2022/09/16 11:40:02;;;;;;;8.10;1.90;;;19.90;53.90;;;;;;4919157;29;20503;-70
2022/09/16 11:42:33;;;;;;;5.35;2.00;;;19.90;54.00;;;;;;4935985;29;20095;-70
2022/09/16 11:45:10;;;;;;;6.07;1.88;;;19.90;53.70;;;;;;4935664;29;20027;-70
2022/09/16 11:47:56;;;;;;;6.50;1.88;;;19.90;53.70;;;;;;4935546;29;20122;-70
2022/09/16 11:50:53;;;;;;;6.75;1.70;;;19.90;53.70;;;;;;4935870;29;20114;-71
2022/09/16 11:53:25;;;;;;;5.60;1.70;;;19.90;53.50;;;;;;4935220;29;20391;-70
2022/09/16 11:55:59;;;;;;;5.30;2.00;;;19.90;53.60;;;;;;4935686;29;20091;-70
2022/09/16 11:58:49;;;;;;;6.03;1.80;;;19.90;53.30;;;;;;4935545;29;20024;-70
2022/09/16 12:01:30;;;;;;;10.80;2.08;;;19.90;53.20;;;;;;4934679;29;20291;-71
2022/09/16 12:04:12;;;;;;;5.05;1.48;;;19.90;53.00;;;;;;4935300;29;20031;-71
2022/09/16 12:07:13;;;;;;;7.88;1.98;;;19.90;53.00;;;;;;4935917;29;20028;-70
2022/09/16 12:09:56;;;;;;;5.47;1.65;;;19.90;52.70;;;;;;4913202;29;20130;-70
2022/09/16 12:12:36;;;;;;;7.68;1.80;;;19.90;52.50;;;;;;4918590;29;20373;-70
2022/09/16 12:15:11;;;;;;;6.07;1.70;;;19.90;52.40;;;;;;4935079;29;20536;-70
2022/09/16 12:17:43;;;;;;;;;;;20.00;52.20;;;;;;4934841;29;20191;-70
2022/09/16 12:20:19;;;;;;;5.10;1.60;;;20.00;52.40;;;;;;4935296;29;20455;-69
2022/09/16 12:23:15;;;;;;;4.43;1.77;;;20.00;52.20;;;;;;4935398;29;20031;-70
2022/09/16 12:26:09;;;;;;;3.83;1.58;;;20.00;52.10;;;;;;4932239;29;20054;-70
2022/09/16 12:28:41;;;;;;;6.65;1.80;;;20.00;52.30;;;;;;4935004;29;20024;-70
2022/09/16 12:31:23;;;;;;;8.52;2.47;;;20.00;52.10;;;;;;4935649;29;20436;-70
2022/09/16 12:33:57;;;;;;;6.28;1.50;;;20.00;52.10;;;;;;4933160;29;20027;-70
2022/09/16 12:36:53;;;;;;;7.75;1.67;;;20.00;52.00;;;;;;4935005;29;20030;-69
2022/09/16 12:39:19;;;;;;;9.85;1.63;;;20.00;52.00;;;;;;4933739;29;20134;-69
2022/09/16 12:41:50;;;;;;;8.63;1.70;;;20.00;52.00;;;;;;4934668;29;20110;-69
2022/09/16 12:44:40;;;;;;;4.93;1.67;;;20.00;51.90;;;;;;4934537;29;20032;-70
2022/09/16 12:47:12;;;;;;;5.53;1.67;;;20.00;52.00;;;;;;4934890;29;20472;-70
2022/09/16 12:50:08;;;;;;;5.82;1.80;;;20.00;51.90;;;;;;4934719;29;20063;-70
2022/09/16 12:52:53;;;;;;;5.93;1.60;;;19.90;52.20;;;;;;4934856;29;20039;-70
2022/09/16 12:55:44;;;;;;;5.38;1.40;;;20.00;52.00;;;;;;4934368;29;20046;-70
2022/09/16 12:58:39;;;;;;;6.15;1.90;;;19.90;51.90;;;;;;4934681;29;20031;-70
2022/09/16 13:01:23;;;;;;;5.50;1.55;;;19.90;51.90;;;;;;4934779;29;20031;-70
2022/09/16 13:04:16;;;;;;;4.25;1.50;;;19.90;52.00;;;;;;4933104;29;20027;-70
2022/09/16 13:06:47;;;;;;;7.18;1.67;;;20.00;52.10;;;;;;4908978;29;20035;-70
2022/09/16 13:09:19;;;;;;;6.68;1.50;;;19.90;52.10;;;;;;4917509;29;20038;-70
2022/09/16 13:12:11;;;;;;;4.57;1.58;;;19.90;52.20;;;;;;4935040;29;20055;-70
2022/09/16 13:14:50;;;;;;;6.57;1.65;;;19.90;52.40;;;;;;4923972;29;20070;-69
2022/09/16 13:17:30;;;;;;;5.68;1.70;;;19.90;52.30;;;;;;4934565;29;20054;-70
2022/09/16 13:20:08;;;;;;;6.35;1.50;;;19.90;52.10;;;;;;4934406;29;20168;-69
2022/09/16 13:22:39;;;;;;;6.10;1.50;;;19.90;52.20;;;;;;4933532;29;20074;-70